Wilson Heron — 9HJW9 — position and weather

sailwx.info

Track history (hours):
 
Tides and Currents Weather Stations Pressure Air Temp Water Temp Dewpoint Dewpoint Depression Visibility Wind Speed Wind Dir Waves Ship Positions

Wilson Heron

Last reported at 2014-Jul-18 00:24 UTC. Time now 2014-Jul-29 12:45 UTC.
Position N 59°13' E 004°43'.
Warning: this ship's position is 11 days out of date.

Length 91 m; draft 5.6 m.

Type: Cargo ship. MMSI: 249075000.

Date/timePositionNaut miles runAvg speedWind from/ knotsBaromVisibWave heightAir tempDewpointWater temp
2014-Jul-18 00:24N 59°13' E 004°43'1010.1
2014-Jul-17 23:27N 59°04' E 004°46'910.2
2014-Jul-17 22:33N 58°55' E 004°49'255 9.8
2014-Jul-16 20:27N 54°40' E 004°41'910.5
2014-Jul-16 19:33N 54°30' E 004°42'2310.6
2014-Jul-16 17:23N 54°07' E 004°44'9 9.4
2014-Jul-16 16:28N 53°59' E 004°41'9 9.5
2014-Jul-16 15:29N 53°52' E 004°30'13 9.5
2014-Jul-16 14:04N 53°43' E 004°13'10 9.8
2014-Jul-16 13:05N 53°37' E 004°00'6 9.6
2014-Jul-16 12:28N 53°33' E 003°52'11 9.0
2014-Jul-16 11:17N 53°24' E 003°44'7 9.2
2014-Jul-16 10:33N 53°17' E 003°41'10 9.7
2014-Jul-16 09:33N 53°08' E 003°35'1110.7
2014-Jul-16 08:33N 52°60' E 003°24'1210.7
2014-Jul-16 07:28N 52°49' E 003°19'1111.5
2014-Jul-16 06:33N 52°38' E 003°16'1212.1
2014-Jul-16 05:33N 52°26' E 003°13'1411.6
2014-Jul-16 04:19N 52°12' E 003°10'911.5
2014-Jul-16 03:34N 52°05' E 003°03'2210.8
2014-Jul-16 01:29N 51°47' E 002°39'9 9.7
2014-Jul-16 00:33N 51°40' E 002°30'10 8.4
2014-Jul-15 23:22N 51°33' E 002°20'6 7.8
2014-Jul-15 22:33N 51°28' E 002°13'8 7.8
2014-Jul-15 21:34N 51°21' E 002°09'9 8.2
2014-Jul-15 20:29N 51°13' E 002°01'8 8.7
2014-Jul-15 19:33N 51°09' E 001°51'9 9.2
2014-Jul-15 18:33N 51°03' E 001°38'1010.4
2014-Jul-15 17:33N 50°56' E 001°27'1211.4
2014-Jul-15 16:31N 50°45' E 001°21'2310.9
2014-Jul-15 14:22N 50°30' E 000°52'911.1
2014-Jul-15 13:31N 50°28' E 000°38'  
2014-Jul-11 15:32N 39°05' W 009°50'9 8.4
2014-Jul-11 14:28N 38°56' W 009°50'8 8.6
2014-Jul-11 13:33N 38°48' W 009°50'8 8.2
2014-Jul-11 12:33N 38°40' W 009°49'8 8.6
2014-Jul-11 11:33N 38°31' W 009°47'9 8.6
2014-Jul-11 10:33N 38°23' W 009°44'8 8.4
2014-Jul-11 09:33N 38°15' W 009°42'9 9.0
2014-Jul-11 08:33N 38°06' W 009°39'9 8.8
2014-Jul-11 07:33N 37°57' W 009°37'9 9.1
2014-Jul-11 06:33N 37°49' W 009°34'9 8.8
2014-Jul-11 05:33N 37°40' W 009°32'8 8.3
2014-Jul-11 04:33N 37°32' W 009°29'8 8.4
2014-Jul-11 03:33N 37°24' W 009°27'9 8.6
2014-Jul-11 02:33N 37°15' W 009°25'9 8.7
2014-Jul-11 01:33N 37°07' W 009°22'9 8.9
2014-Jul-11 00:33N 36°58' W 009°20'9 8.7
2014-Jul-10 23:33N 36°50' W 009°15'9 9.3
2014-Jul-10 22:33N 36°45' W 009°06'9 9.1
2014-Jul-10 21:33N 36°42' W 008°55'9 9.2
2014-Jul-10 20:33N 36°39' W 008°44'10 9.6
2014-Jul-10 19:33N 36°36' W 008°33'10 9.8
2014-Jul-10 18:33N 36°33' W 008°21'1010.1
2014-Jul-10 17:33N 36°29' W 008°09'10 9.6
2014-Jul-10 16:33N 36°26' W 007°58'10 9.8
2014-Jul-10 15:33N 36°23' W 007°46'463 9.2
2014-Jul-08 13:11N 38°13' E 001°39'6 9.7
2014-Jul-08 12:32N 38°16' E 001°46'3210.0
2014-Jul-08 09:20N 38°33' E 002°21'1110.1
2014-Jul-08 08:14N 38°38' E 002°33'6 9.3
2014-Jul-08 07:33N 38°42' E 002°40'1010.2
2014-Jul-08 06:33N 38°47' E 002°51'1010.3
2014-Jul-08 05:33N 38°52' E 003°03'10 9.5
2014-Jul-08 04:33N 38°57' E 003°13'10 9.6
2014-Jul-08 03:33N 39°02' E 003°24'10 9.8
2014-Jul-08 02:33N 39°07' E 003°35'10 9.8
2014-Jul-08 01:33N 39°12' E 003°46'11 9.6
2014-Jul-08 00:24N 39°18' E 003°58'  
Track history (hours):
 
Tides and Currents Weather Stations Pressure Air Temp Water Temp Dewpoint Dewpoint Depression Visibility Wind Speed Wind Dir Waves Ship Positions

Wilson Heron

Last reported at 2014-Jul-18 00:24 UTC. Time now 2014-Jul-29 12:45 UTC.
Position N 59°13' E 004°43'.
Warning: this ship's position is 11 days out of date.

Length 91 m; draft 5.6 m.

Type: Cargo ship. MMSI: 249075000.

Date/timePositionNaut miles runAvg speedWind from/ knotsBaromVisibWave heightAir tempDewpointWater temp
2014-Jul-18 00:24N 59°13' E 004°43'1010.1
2014-Jul-17 23:27N 59°04' E 004°46'910.2
2014-Jul-17 22:33N 58°55' E 004°49'255 9.8
2014-Jul-16 20:27N 54°40' E 004°41'910.5
2014-Jul-16 19:33N 54°30' E 004°42'2310.6
2014-Jul-16 17:23N 54°07' E 004°44'9 9.4
2014-Jul-16 16:28N 53°59' E 004°41'9 9.5
2014-Jul-16 15:29N 53°52' E 004°30'13 9.5
2014-Jul-16 14:04N 53°43' E 004°13'10 9.8
2014-Jul-16 13:05N 53°37' E 004°00'6 9.6
2014-Jul-16 12:28N 53°33' E 003°52'11 9.0
2014-Jul-16 11:17N 53°24' E 003°44'7 9.2
2014-Jul-16 10:33N 53°17' E 003°41'10 9.7
2014-Jul-16 09:33N 53°08' E 003°35'1110.7
2014-Jul-16 08:33N 52°60' E 003°24'1210.7
2014-Jul-16 07:28N 52°49' E 003°19'1111.5
2014-Jul-16 06:33N 52°38' E 003°16'1212.1
2014-Jul-16 05:33N 52°26' E 003°13'1411.6
2014-Jul-16 04:19N 52°12' E 003°10'911.5
2014-Jul-16 03:34N 52°05' E 003°03'2210.8
2014-Jul-16 01:29N 51°47' E 002°39'9 9.7
2014-Jul-16 00:33N 51°40' E 002°30'10 8.4
2014-Jul-15 23:22N 51°33' E 002°20'6 7.8
2014-Jul-15 22:33N 51°28' E 002°13'8 7.8
2014-Jul-15 21:34N 51°21' E 002°09'9 8.2
2014-Jul-15 20:29N 51°13' E 002°01'8 8.7
2014-Jul-15 19:33N 51°09' E 001°51'9 9.2
2014-Jul-15 18:33N 51°03' E 001°38'1010.4
2014-Jul-15 17:33N 50°56' E 001°27'1211.4
2014-Jul-15 16:31N 50°45' E 001°21'2310.9
2014-Jul-15 14:22N 50°30' E 000°52'911.1
2014-Jul-15 13:31N 50°28' E 000°38'  
2014-Jul-11 15:32N 39°05' W 009°50'9 8.4
2014-Jul-11 14:28N 38°56' W 009°50'8 8.6
2014-Jul-11 13:33N 38°48' W 009°50'8 8.2
2014-Jul-11 12:33N 38°40' W 009°49'8 8.6
2014-Jul-11 11:33N 38°31' W 009°47'9 8.6
2014-Jul-11 10:33N 38°23' W 009°44'8 8.4
2014-Jul-11 09:33N 38°15' W 009°42'9 9.0
2014-Jul-11 08:33N 38°06' W 009°39'9 8.8
2014-Jul-11 07:33N 37°57' W 009°37'9 9.1
2014-Jul-11 06:33N 37°49' W 009°34'9 8.8
2014-Jul-11 05:33N 37°40' W 009°32'8 8.3
2014-Jul-11 04:33N 37°32' W 009°29'8 8.4
2014-Jul-11 03:33N 37°24' W 009°27'9 8.6
2014-Jul-11 02:33N 37°15' W 009°25'9 8.7
2014-Jul-11 01:33N 37°07' W 009°22'9 8.9
2014-Jul-11 00:33N 36°58' W 009°20'9 8.7
2014-Jul-10 23:33N 36°50' W 009°15'9 9.3
2014-Jul-10 22:33N 36°45' W 009°06'9 9.1
2014-Jul-10 21:33N 36°42' W 008°55'9 9.2
2014-Jul-10 20:33N 36°39' W 008°44'10 9.6
2014-Jul-10 19:33N 36°36' W 008°33'10 9.8
2014-Jul-10 18:33N 36°33' W 008°21'1010.1
2014-Jul-10 17:33N 36°29' W 008°09'10 9.6
2014-Jul-10 16:33N 36°26' W 007°58'10 9.8
2014-Jul-10 15:33N 36°23' W 007°46'463 9.2
2014-Jul-08 13:11N 38°13' E 001°39'6 9.7
2014-Jul-08 12:32N 38°16' E 001°46'3210.0
2014-Jul-08 09:20N 38°33' E 002°21'1110.1
2014-Jul-08 08:14N 38°38' E 002°33'6 9.3
2014-Jul-08 07:33N 38°42' E 002°40'1010.2
2014-Jul-08 06:33N 38°47' E 002°51'1010.3
2014-Jul-08 05:33N 38°52' E 003°03'10 9.5
2014-Jul-08 04:33N 38°57' E 003°13'10 9.6
2014-Jul-08 03:33N 39°02' E 003°24'10 9.8
2014-Jul-08 02:33N 39°07' E 003°35'10 9.8
2014-Jul-08 01:33N 39°12' E 003°46'11 9.6
2014-Jul-08 00:24N 39°18' E 003°58'  

Dump ship's entire track history